Accueil
METAR-TAF:

METAR-TAF

Aéroports :

Aéroport international Zvartnots

Erevan, Arménie

latitude: 40-08-50N, longitude: 044-23-45E, altitude: 865 m

Observation

Le bulletin a été fait il y a 36 minutes, à 10:30 UTC
Vent 1 kt de direction variable
Température 3°C
Humidité 48%
Pression 1024 hPa
Visibilité: 6000 m

METAR: UDYZ 201030Z VRB01KT 6000 NSC 03/M07 Q1024 R09/010070 NOSIG

Heure: 15:06 (11:06 UTC)

Prévision

Le bulletin a été fait il y a 6 heures et 1 minutes, à 05:05 UTC
Prévision valable du 20 à 06 UTC au 21 à 06 UTC
Vent 4 kt de direction variable
Visibilité: 6000 m

TAF: UDYZ 200505Z 2006/2106 VRB04KT 6000 NSC

Observations et prévisions météorologiques de plus de 4000 aéroports (messages METAR et TAF).

Les stations disponibles sont représentées par des disques jaunes et rouges sur la carte.

Passer la souris dessus pour voir le nom de la station.

Cliquer dessus pour voir les observations et prévisions météorologiques.

Pour changer de carte: cliquez sur les boutons verts avec une croix noire pour zoomer, sur le bouton vert avec un tiret pour effectuer un zoom arrière, ou sur les flèches vertes pour les cartes adjacentes.


METAR-TAF: